NCAR-RAP Real-Time Weather Data

Output produced by METARs form (12 August 2020  18:18 UTC)
found at http://weather.rap.ucar.edu/surface/
 
KGPI 121755Z 23010KT 10SM BKN120 20/03 A2987 RMK AO2 SLP104 T02000033 10200 20106 53019
KGPI 121655Z 23010G17KT 10SM CLR 20/03 A2984 RMK AO2 SLP089 T02000028
KGPI 121555Z 21008KT 10SM BKN120 18/03 A2983 RMK AO2 SLP088 T01830033
KGPI 121455Z 24007KT 10SM CLR 18/03 A2981 RMK AO2 SLP076 T01780028 53016
KGPI 121355Z 22009KT 10SM CLR 15/04 A2978 RMK AO2 SLP065 T01500039
KGPI 121255Z AUTO 36004KT 10SM CLR 12/03 A2977 RMK AO2 SLP063 T01220033 TSNO
KGPI 121155Z AUTO 21006KT 10SM CLR 11/03 A2976 RMK AO2 SLP060 T01060033 10161 20106 53001 TSNO
KGPI 121055Z AUTO 20006KT 10SM CLR 12/04 A2975 RMK AO2 SLP055 T01220039 TSNO
KGPI 120955Z AUTO 22007KT 10SM CLR 13/04 A2976 RMK AO2 SLP057 T01330039 TSNO
KGPI 120855Z AUTO 23006KT 10SM CLR 13/04 A2976 RMK AO2 SLP056 T01280039 51008
KGPI 120755Z AUTO 21006KT 10SM CLR 14/04 A2975 RMK AO2 SLP053 T01440039
KGPI 120655Z AUTO 18005KT 10SM CLR 14/04 A2974 RMK AO2 SLP056 T01390044 403110061
KGPI 120555Z 22003KT 10SM CLR 16/05 A2973 RMK AO2 SLP050 T01560050 10306 20144 58004
KGPI 120455Z 24003KT 10SM CLR 17/04 A2975 RMK AO2 SLP058 T01720039
KGPI 120355Z 22005KT 10SM CLR 17/03 A2976 RMK AO2 SLP064 T01720033
KGPI 120255Z 23006KT 10SM CLR 23/01 A2974 RMK AO2 SLP057 T02330006 53001
KGPI 120155Z 24010KT 10SM CLR 28/M01 A2973 RMK AO2 SLP053 T02781006
KGPI 120055Z 24012KT 10SM FEW100 29/03 A2973 RMK AO2 SLP053 T02940028
KGPI 112355Z 22009KT 180V250 10SM SCT110 29/04 A2974 RMK AO2 SLP056 T02940039 10311 20244 56013
KGPI 112255Z 25014G20KT 10SM BKN100 31/04 A2974 RMK AO2 SLP057 T03060039